Time;durP1;ratioP1;P1;durP2;ratioP2;P2;SDS_P1;SDS_P2;PMS_P1;PMS_P2;Temp;Humidity;BMP_temperature;BMP_pressure;BME280_temperature;BME280_humidity;BME280_pressure;Samples;Min_cycle;Max_cycle;Signal;HPM_P1;HPM_P2
2022/02/22 00:01:52;;;;;;;4.53;1.30;;;22.50;99.90;;;;;;5046772;28;20029;-76
2022/02/22 00:04:20;;;;;;;2.63;1.20;;;22.50;99.90;;;;;;5048598;28;20036;-76
2022/02/22 00:06:47;;;;;;;3.22;1.88;;;22.60;99.90;;;;;;5050814;28;20472;-75
2022/02/22 00:09:15;;;;;;;2.72;0.93;;;22.70;99.90;;;;;;5051401;28;20040;-75
2022/02/22 00:11:42;;;;;;;7.38;1.30;;;22.70;99.90;;;;;;5050870;28;20040;-75
2022/02/22 00:14:12;;;;;;;3.03;0.85;;;22.80;99.90;;;;;;5051037;28;20032;-76
2022/02/22 00:16:39;;;;;;;5.00;0.88;;;23.00;99.90;;;;;;5049746;28;20024;-76
2022/02/22 00:19:07;;;;;;;3.83;1.15;;;23.20;99.90;;;;;;5048951;28;20107;-75
2022/02/22 00:21:34;;;;;;;2.60;0.90;;;23.40;99.90;;;;;;5063760;28;20033;-76
2022/02/22 00:24:01;;;;;;;2.95;1.50;;;23.50;99.90;;;;;;5052316;28;20044;-75
2022/02/22 00:26:29;;;;;;;5.53;2.10;;;23.60;99.90;;;;;;5049997;28;20029;-75
2022/02/22 00:28:56;;;;;;;9.52;1.52;;;23.50;99.90;;;;;;5050087;28;20074;-75
2022/02/22 00:31:23;;;;;;;4.63;1.33;;;23.30;99.90;;;;;;5050689;28;20033;-75
2022/02/22 00:33:51;;;;;;;2.15;1.10;;;23.10;99.90;;;;;;5045525;28;20453;-75
2022/02/22 00:36:18;;;;;;;3.72;1.60;;;22.90;99.90;;;;;;5046753;28;20024;-74
2022/02/22 00:38:49;;;;;;;2.65;1.10;;;22.80;99.90;;;;;;5049108;28;20084;-76
2022/02/22 00:41:17;;;;;;;7.65;2.13;;;22.80;99.90;;;;;;5062984;28;20476;-75
2022/02/22 00:43:45;;;;;;;4.85;0.90;;;22.70;99.90;;;;;;5049845;28;20207;-77
2022/02/22 00:46:13;;;;;;;2.72;1.65;;;22.70;99.90;;;;;;5047652;28;20033;-75
2022/02/22 00:48:41;;;;;;;3.35;1.38;;;22.70;99.90;;;;;;5048902;28;20056;-76
2022/02/22 00:51:08;;;;;;;5.25;1.40;;;22.70;99.90;;;;;;5046410;28;20039;-76
2022/02/22 00:53:35;;;;;;;4.30;1.77;;;22.70;99.90;;;;;;5048465;28;20035;-77
2022/02/22 00:56:03;;;;;;;4.30;1.08;;;22.70;99.90;;;;;;5050918;28;20117;-76
2022/02/22 00:58:30;;;;;;;5.13;1.35;;;22.70;99.90;;;;;;5047992;28;20035;-76
2022/02/22 01:00:58;;;;;;;3.10;1.25;;;22.70;99.90;;;;;;5049797;28;20056;-74
2022/02/22 01:03:25;;;;;;;2.53;1.08;;;22.80;99.90;;;;;;5048143;28;20020;-76
2022/02/22 01:05:52;;;;;;;4.35;1.15;;;22.70;99.90;;;;;;5042724;28;20029;-73
2022/02/22 01:08:20;;;;;;;3.30;1.20;;;22.70;99.90;;;;;;5048902;28;20020;-75
2022/02/22 01:10:47;;;;;;;3.35;1.20;;;22.70;99.90;;;;;;5048548;28;20029;-77
2022/02/22 01:13:15;;;;;;;6.63;1.40;;;22.70;99.90;;;;;;5046048;28;20060;-76
2022/02/22 01:15:43;;;;;;;6.60;1.55;;;22.60;99.90;;;;;;5038919;28;20021;-74
2022/02/22 01:18:10;;;;;;;3.40;1.00;;;22.60;99.90;;;;;;5044758;28;20016;-75
2022/02/22 01:20:37;;;;;;;6.75;2.00;;;22.60;99.90;;;;;;5043383;28;20045;-77
2022/02/22 01:23:05;;;;;;;5.55;1.50;;;22.50;99.90;;;;;;5039619;28;20064;-76
2022/02/22 01:25:32;;;;;;;10.38;1.77;;;22.50;99.90;;;;;;5043398;28;20057;-76
2022/02/22 01:27:59;;;;;;;3.47;1.33;;;22.50;99.90;;;;;;5042438;28;20099;-76
2022/02/22 01:30:30;;;;;;;5.15;1.50;;;22.50;99.90;;;;;;5051688;28;20035;-75
2022/02/22 01:32:57;;;;;;;6.28;1.77;;;22.50;99.90;;;;;;5053734;28;20028;-74
2022/02/22 01:35:24;;;;;;;6.40;1.75;;;22.50;99.90;;;;;;5047094;28;20051;-77
2022/02/22 01:37:52;;;;;;;3.42;1.15;;;22.50;99.90;;;;;;5048145;28;20020;-74
2022/02/22 01:40:21;;;;;;;5.38;1.40;;;22.50;99.90;;;;;;5050165;28;20162;-77
2022/02/22 01:42:48;;;;;;;4.90;1.30;;;22.50;99.90;;;;;;5048692;28;20048;-76
2022/02/22 01:45:17;;;;;;;8.63;2.03;;;22.40;99.90;;;;;;5048415;28;20428;-76
2022/02/22 01:47:44;;;;;;;6.65;1.73;;;22.40;99.90;;;;;;5047941;28;20036;-74
2022/02/22 01:50:11;;;;;;;4.32;1.38;;;22.40;99.90;;;;;;5040154;28;20367;-76
2022/02/22 01:52:39;;;;;;;5.90;1.15;;;22.30;99.90;;;;;;5047622;28;20369;-76
2022/02/22 01:55:07;;;;;;;8.93;1.85;;;22.30;99.90;;;;;;5048908;28;20031;-77
2022/02/22 01:57:35;;;;;;;4.22;1.40;;;22.30;99.90;;;;;;5045140;28;20032;-75
2022/02/22 02:00:10;;;;;;;10.18;1.75;;;22.30;99.90;;;;;;5050363;28;20028;-77
2022/02/22 02:02:37;;;;;;;6.57;2.23;;;22.40;99.90;;;;;;5041557;28;20035;-75
2022/02/22 02:05:06;;;;;;;3.88;1.50;;;22.40;99.90;;;;;;5052341;28;20018;-78
2022/02/22 02:07:34;;;;;;;4.43;1.55;;;22.60;99.90;;;;;;5050065;28;20110;-76
2022/02/22 02:10:02;;;;;;;7.05;1.98;;;22.60;99.90;;;;;;5042190;28;20281;-77
2022/02/22 02:12:36;;;;;;;6.68;1.55;;;22.60;99.90;;;;;;5047349;28;20426;-76
2022/02/22 02:15:05;;;;;;;2.97;1.90;;;22.60;99.90;;;;;;5052795;28;20049;-76
2022/02/22 02:17:34;;;;;;;4.97;1.42;;;22.60;99.90;;;;;;5053464;28;20480;-78
2022/02/22 02:20:07;;;;;;;4.70;1.45;;;22.60;99.90;;;;;;5051689;28;20528;-77
2022/02/22 02:22:36;;;;;;;8.68;1.75;;;22.60;99.90;;;;;;5051589;28;20559;-77
2022/02/22 02:25:05;;;;;;;7.25;2.58;;;22.70;99.90;;;;;;5054552;28;20037;-77
2022/02/22 02:27:35;;;;;;;7.55;1.50;;;22.70;99.90;;;;;;5051474;28;20040;-74
2022/02/22 02:30:05;;;;;;;3.40;1.40;;;22.60;99.90;;;;;;5054677;28;20032;-77
2022/02/22 02:32:32;;;;;;;5.32;2.10;;;22.60;99.90;;;;;;5053775;28;20479;-77
2022/02/22 02:34:59;;;;;;;2.83;1.42;;;22.70;99.90;;;;;;5052113;28;20063;-75
2022/02/22 02:37:27;;;;;;;3.30;1.48;;;22.70;99.90;;;;;;5048007;28;20155;-76
2022/02/22 02:39:54;;;;;;;4.78;2.00;;;22.70;99.90;;;;;;5044845;28;20060;-76
2022/02/22 02:42:22;;;;;;;2.95;1.42;;;22.90;99.90;;;;;;5050922;28;20492;-76
2022/02/22 02:44:50;;;;;;;3.22;1.63;;;23.00;99.90;;;;;;5052768;28;20541;-74
2022/02/22 02:47:18;;;;;;;4.80;1.77;;;23.00;99.90;;;;;;5043757;28;20487;-75
2022/02/22 02:49:47;;;;;;;5.38;1.98;;;23.00;99.90;;;;;;5050790;28;20044;-75
2022/02/22 02:52:14;;;;;;;5.55;2.38;;;22.90;99.90;;;;;;5046898;28;20075;-77
2022/02/22 02:54:42;;;;;;;2.80;1.48;;;22.90;99.90;;;;;;5047971;28;20063;-76
2022/02/22 02:57:09;;;;;;;5.15;1.70;;;22.90;99.90;;;;;;5047599;28;20041;-74
2022/02/22 02:59:37;;;;;;;6.10;2.25;;;23.00;99.90;;;;;;5053290;28;20036;-75
2022/02/22 03:02:05;;;;;;;4.95;1.88;;;23.10;99.90;;;;;;5052837;28;20025;-75
2022/02/22 03:04:32;;;;;;;2.20;1.80;;;23.20;99.90;;;;;;5052671;28;20029;-75
2022/02/22 03:06:59;;;;;;;3.40;1.77;;;23.30;99.90;;;;;;5050423;28;20037;-75
2022/02/22 03:09:26;;;;;;;5.28;2.00;;;23.30;99.90;;;;;;5043622;28;20464;-74
2022/02/22 03:11:54;;;;;;;4.55;2.28;;;23.30;99.90;;;;;;5051150;28;20021;-74
2022/02/22 03:14:21;;;;;;;2.88;1.27;;;23.40;99.90;;;;;;5052954;28;20336;-74
2022/02/22 03:16:49;;;;;;;3.78;1.83;;;23.50;99.90;;;;;;5050673;28;20051;-75
2022/02/22 03:19:16;;;;;;;8.20;2.15;;;23.50;99.90;;;;;;5050829;28;20114;-73
2022/02/22 03:21:44;;;;;;;3.05;1.67;;;23.50;99.90;;;;;;5047355;28;20114;-75
2022/02/22 03:24:14;;;;;;;4.38;1.70;;;23.50;99.90;;;;;;5052456;28;20033;-77
2022/02/22 03:26:41;;;;;;;3.70;1.17;;;23.40;99.90;;;;;;5047439;28;20116;-75
2022/02/22 03:29:09;;;;;;;6.38;2.53;;;23.40;99.90;;;;;;5044797;28;20032;-76
2022/02/22 03:31:36;;;;;;;3.75;1.80;;;23.50;99.90;;;;;;5048964;28;20029;-77
2022/02/22 03:34:04;;;;;;;1.92;1.20;;;23.60;99.90;;;;;;5051711;28;20029;-76
2022/02/22 03:36:31;;;;;;;6.15;1.60;;;23.70;99.90;;;;;;5051052;28;20363;-76
2022/02/22 03:38:58;;;;;;;2.10;1.17;;;24.00;99.90;;;;;;5050940;28;20044;-74
2022/02/22 03:41:27;;;;;;;3.38;1.20;;;24.10;99.90;;;;;;5049345;28;20021;-76
2022/02/22 03:43:55;;;;;;;2.25;1.33;;;24.10;99.90;;;;;;5049240;28;20066;-75
2022/02/22 03:46:22;;;;;;;5.00;1.25;;;24.10;99.90;;;;;;5049239;28;20159;-76
2022/02/22 03:48:49;;;;;;;2.53;1.10;;;24.10;99.90;;;;;;5048186;28;20128;-77
2022/02/22 03:51:17;;;;;;;3.45;1.02;;;24.00;99.90;;;;;;5055835;28;20032;-77
2022/02/22 03:53:44;;;;;;;2.45;1.17;;;24.00;99.90;;;;;;5050306;28;20460;-75
2022/02/22 03:56:12;;;;;;;3.08;0.95;;;23.90;99.90;;;;;;5048926;28;20025;-74
2022/02/22 03:58:39;;;;;;;3.28;0.90;;;23.80;99.90;;;;;;5050682;28;20039;-75
2022/02/22 04:01:06;;;;;;;3.30;1.10;;;23.60;99.90;;;;;;5047906;28;20094;-79
2022/02/22 04:03:34;;;;;;;1.58;0.60;;;23.60;99.90;;;;;;5039115;28;20730;-75
2022/02/22 04:06:01;;;;;;;4.47;0.82;;;23.50;99.90;;;;;;5050152;28;20021;-76
2022/02/22 04:08:28;;;;;;;1.83;0.95;;;23.30;99.90;;;;;;5051630;28;20043;-75
2022/02/22 04:10:56;;;;;;;4.72;1.33;;;23.20;99.90;;;;;;5051062;28;20464;-76
2022/02/22 04:13:23;;;;;;;2.97;1.20;;;23.20;99.90;;;;;;5047561;28;20061;-76
2022/02/22 04:15:50;;;;;;;1.48;0.55;;;23.40;99.90;;;;;;5049479;28;20103;-75
2022/02/22 04:18:18;;;;;;;3.88;0.90;;;23.40;99.90;;;;;;5046569;28;20139;-78
2022/02/22 04:20:45;;;;;;;3.90;1.10;;;23.40;99.90;;;;;;5045725;28;20044;-77
2022/02/22 04:23:12;;;;;;;1.95;1.20;;;23.40;99.90;;;;;;5048325;28;20106;-74
2022/02/22 04:25:40;;;;;;;3.30;1.67;;;23.30;99.90;;;;;;5048833;28;20371;-76
2022/02/22 04:28:07;;;;;;;1.40;0.40;;;23.10;99.90;;;;;;5042886;28;20044;-73
2022/02/22 04:30:35;;;;;;;1.45;0.70;;;23.20;99.90;;;;;;5047015;28;20490;-76
2022/02/22 04:33:02;;;;;;;3.45;0.80;;;23.40;99.90;;;;;;5044154;28;20431;-74
2022/02/22 04:35:29;;;;;;;1.02;0.40;;;23.50;99.90;;;;;;5046432;28;20021;-74
2022/02/22 04:37:57;;;;;;;0.82;0.32;;;23.60;99.90;;;;;;5046999;28;20059;-74
2022/02/22 04:40:25;;;;;;;0.50;0.35;;;23.70;99.90;;;;;;5044761;28;20145;-77
2022/02/22 04:42:52;;;;;;;2.05;0.38;;;23.70;99.90;;;;;;5045589;28;20044;-74
2022/02/22 04:45:20;;;;;;;1.40;0.32;;;23.70;99.90;;;;;;5049420;28;20032;-76
2022/02/22 04:47:47;;;;;;;0.82;0.40;;;23.80;99.90;;;;;;5046824;28;20075;-74
2022/02/22 04:50:19;;;;;;;2.08;0.82;;;23.80;99.90;;;;;;5047663;28;20091;-76
2022/02/22 04:52:46;;;;;;;1.05;0.50;;;23.90;99.90;;;;;;5048171;28;20098;-73
2022/02/22 04:55:13;;;;;;;1.55;0.60;;;23.80;99.90;;;;;;5048564;28;20020;-74
2022/02/22 04:57:41;;;;;;;3.30;0.75;;;23.70;99.90;;;;;;5046986;28;20036;-74
2022/02/22 05:00:12;;;;;;;0.60;0.28;;;23.70;99.90;;;;;;5047838;28;20052;-76
2022/02/22 05:02:39;;;;;;;3.00;0.77;;;23.70;99.90;;;;;;5048323;28;20087;-75
2022/02/22 05:05:07;;;;;;;1.17;0.85;;;23.70;99.90;;;;;;5046210;28;20451;-74
2022/02/22 05:07:35;;;;;;;1.10;0.20;;;23.80;99.90;;;;;;5042696;28;20106;-74
2022/02/22 05:10:03;;;;;;;1.35;0.35;;;23.90;99.90;;;;;;5040202;28;20029;-75
2022/02/22 05:12:30;;;;;;;0.43;0.30;;;24.00;99.90;;;;;;5045175;28;20024;-73
2022/02/22 05:14:57;;;;;;;0.70;0.20;;;24.10;99.90;;;;;;5046357;28;20083;-73
2022/02/22 05:17:24;;;;;;;2.70;0.30;;;24.10;99.90;;;;;;5043500;28;20021;-75
2022/02/22 05:19:52;;;;;;;2.92;0.70;;;24.10;99.90;;;;;;5046439;28;20075;-73
2022/02/22 05:22:19;;;;;;;0.63;0.50;;;24.10;99.90;;;;;;5047870;28;20043;-74
2022/02/22 05:24:46;;;;;;;2.33;0.63;;;24.10;99.90;;;;;;5045279;28;20040;-77
2022/02/22 05:27:14;;;;;;;1.73;0.90;;;24.20;99.90;;;;;;5046092;28;20063;-77
2022/02/22 05:29:41;;;;;;;0.47;0.32;;;24.30;99.90;;;;;;5047296;28;20100;-76
2022/02/22 05:32:09;;;;;;;2.97;1.35;;;24.40;99.90;;;;;;5044353;28;20025;-74
2022/02/22 05:34:37;;;;;;;1.42;0.52;;;24.40;99.90;;;;;;5049608;28;20021;-74
2022/02/22 05:37:04;;;;;;;0.80;0.32;;;24.30;99.90;;;;;;5041769;28;20021;-75
2022/02/22 05:39:32;;;;;;;1.45;0.40;;;24.20;99.90;;;;;;5052591;28;20025;-72
2022/02/22 05:41:59;;;;;;;0.45;0.20;;;24.20;99.90;;;;;;5049224;28;20045;-74
2022/02/22 05:44:27;;;;;;;1.88;0.60;;;24.20;99.90;;;;;;5054430;28;20060;-75
2022/02/22 05:46:54;;;;;;;0.60;0.45;;;24.30;99.90;;;;;;5046923;28;20040;-73
2022/02/22 05:49:25;;;;;;;0.20;0.20;;;24.40;99.90;;;;;;5052362;28;20028;-75
2022/02/22 05:51:54;;;;;;;0.70;0.47;;;24.30;99.90;;;;;;5050912;28;20132;-78
2022/02/22 05:54:21;;;;;;;3.00;0.55;;;24.10;99.90;;;;;;5060353;28;20033;-75
2022/02/22 05:56:50;;;;;;;1.17;0.47;;;24.00;99.90;;;;;;5062123;28;20013;-75
2022/02/22 05:59:17;;;;;;;1.15;0.75;;;24.00;99.90;;;;;;5061184;28;20017;-76
2022/02/22 06:01:45;;;;;;;4.10;0.57;;;24.00;99.90;;;;;;5062420;28;20025;-78
2022/02/22 06:04:12;;;;;;;1.48;0.50;;;24.00;99.90;;;;;;5064313;28;20017;-75
2022/02/22 06:06:41;;;;;;;1.15;0.22;;;24.00;99.90;;;;;;5060576;28;20040;-77
2022/02/22 06:09:12;;;;;;;0.68;0.30;;;24.00;99.90;;;;;;5061832;28;20025;-75
2022/02/22 06:11:40;;;;;;;0.38;0.30;;;24.00;99.90;;;;;;5058652;28;20035;-77
2022/02/22 06:14:07;;;;;;;0.75;0.75;;;24.00;99.90;;;;;;5053075;28;20462;-76
2022/02/22 06:16:35;;;;;;;0.52;0.30;;;24.10;99.90;;;;;;5042574;28;20397;-75
2022/02/22 06:19:02;;;;;;;1.17;0.40;;;24.20;99.90;;;;;;5049385;28;20021;-77
2022/02/22 06:21:30;;;;;;;1.23;0.50;;;24.20;99.90;;;;;;5051154;28;20093;-77
2022/02/22 06:23:57;;;;;;;1.20;0.40;;;24.20;99.90;;;;;;5051660;28;20017;-77
2022/02/22 06:26:24;;;;;;;3.65;0.30;;;24.40;99.90;;;;;;5051985;28;20036;-75
2022/02/22 06:28:52;;;;;;;1.15;0.63;;;24.50;99.90;;;;;;5045487;28;20033;-76
2022/02/22 06:31:19;;;;;;;1.42;0.70;;;24.50;99.90;;;;;;5050891;28;20414;-75
2022/02/22 06:33:46;;;;;;;3.05;0.30;;;24.50;99.90;;;;;;5047519;28;20029;-75
2022/02/22 06:36:14;;;;;;;2.08;0.40;;;24.50;99.90;;;;;;5051210;28;20104;-73
2022/02/22 06:38:41;;;;;;;0.93;0.20;;;24.50;99.90;;;;;;5052365;28;20475;-74
2022/02/22 06:41:08;;;;;;;0.90;0.40;;;24.50;99.90;;;;;;5052503;28;20486;-74
2022/02/22 06:43:36;;;;;;;0.60;0.40;;;24.50;99.90;;;;;;5051252;28;20061;-76
2022/02/22 06:46:03;;;;;;;1.73;1.13;;;24.50;99.90;;;;;;5051351;28;20143;-75
2022/02/22 06:48:31;;;;;;;2.10;0.40;;;24.60;99.90;;;;;;5051141;28;20055;-75
2022/02/22 06:50:59;;;;;;;0.95;0.40;;;24.60;99.90;;;;;;5052415;28;20028;-77
2022/02/22 06:53:26;;;;;;;2.33;0.50;;;24.80;99.90;;;;;;5050111;28;20033;-76
2022/02/22 06:55:54;;;;;;;1.58;0.30;;;24.90;99.90;;;;;;5051776;28;20060;-79
2022/02/22 06:58:21;;;;;;;1.35;0.38;;;25.10;99.90;;;;;;5051532;28;20490;-79
2022/02/22 07:00:51;;;;;;;0.82;0.40;;;25.10;99.90;;;;;;5051503;28;20047;-77
2022/02/22 07:03:18;;;;;;;2.05;0.50;;;25.10;99.90;;;;;;5051894;28;20066;-77
2022/02/22 07:05:46;;;;;;;1.27;0.63;;;25.00;99.90;;;;;;5051367;28;20036;-76
2022/02/22 07:08:13;;;;;;;1.50;0.50;;;24.80;99.90;;;;;;5043718;28;20463;-76
2022/02/22 07:10:41;;;;;;;1.52;0.40;;;24.70;99.90;;;;;;5048616;28;20023;-75
2022/02/22 07:13:08;;;;;;;2.70;0.47;;;24.70;99.90;;;;;;5050010;28;20550;-74
2022/02/22 07:15:36;;;;;;;0.52;0.20;;;24.70;99.90;;;;;;5051042;28;20468;-76
2022/02/22 07:18:10;;;;;;;1.42;0.20;;;24.60;99.90;;;;;;5045654;28;20041;-75
2022/02/22 07:20:38;;;;;;;0.63;0.52;;;24.50;99.90;;;;;;5043354;28;20028;-76
2022/02/22 07:23:05;;;;;;;0.55;0.22;;;24.50;99.90;;;;;;5044140;28;20032;-75
2022/02/22 07:25:33;;;;;;;1.02;0.75;;;24.50;99.90;;;;;;5042631;28;20057;-75
2022/02/22 07:28:02;;;;;;;1.65;0.20;;;24.60;99.90;;;;;;5045158;28;20116;-74
2022/02/22 07:30:30;;;;;;;0.50;0.32;;;24.60;99.90;;;;;;5051302;28;20104;-76
2022/02/22 07:33:00;;;;;;;0.95;0.70;;;24.60;99.90;;;;;;5051005;28;20095;-75
2022/02/22 07:35:29;;;;;;;4.45;0.38;;;24.50;99.90;;;;;;5052658;28;20028;-76
2022/02/22 07:37:56;;;;;;;1.20;0.30;;;24.40;99.90;;;;;;5050164;28;20025;-76
2022/02/22 07:40:25;;;;;;;1.27;0.30;;;24.20;99.90;;;;;;5045613;28;20048;-75
2022/02/22 07:42:53;;;;;;;0.43;0.20;;;24.20;99.90;;;;;;5045961;28;20120;-75
2022/02/22 07:45:20;;;;;;;1.27;0.30;;;24.10;99.90;;;;;;5047523;28;20025;-74
2022/02/22 07:47:47;;;;;;;0.47;0.20;;;24.10;99.90;;;;;;5044848;28;20029;-76
2022/02/22 07:50:15;;;;;;;0.40;0.20;;;24.10;99.90;;;;;;5045145;28;20070;-75
2022/02/22 07:52:43;;;;;;;0.77;0.20;;;24.10;99.90;;;;;;5049591;28;20028;-76
2022/02/22 07:55:10;;;;;;;2.78;0.50;;;24.10;99.90;;;;;;5043555;28;20557;-76
2022/02/22 07:57:38;;;;;;;1.70;0.50;;;24.10;99.90;;;;;;5047371;28;20031;-76
2022/02/22 08:00:08;;;;;;;0.60;0.30;;;24.00;99.90;;;;;;5050254;28;20036;-76
2022/02/22 08:02:35;;;;;;;0.95;0.30;;;23.90;99.90;;;;;;5043036;28;20029;-75
2022/02/22 08:14:22;;;;;;;0.15;0.15;;;23.70;99.90;;;;;;4655366;28;20132;-75
2022/02/22 08:16:51;;;;;;;0.60;0.20;;;23.70;99.90;;;;;;5023177;28;20040;-78
2022/02/22 08:19:19;;;;;;;1.88;0.40;;;23.60;99.90;;;;;;5022795;28;20076;-78
2022/02/22 08:21:46;;;;;;;0.15;0.10;;;23.60;99.90;;;;;;5023248;28;20115;-77
2022/02/22 08:24:14;;;;;;;1.27;0.25;;;23.50;99.90;;;;;;5026171;28;20379;-76
2022/02/22 08:26:41;;;;;;;1.08;0.50;;;23.50;99.90;;;;;;5018361;28;20041;-78
2022/02/22 08:29:09;;;;;;;1.75;0.30;;;23.50;99.90;;;;;;5023798;28;20494;-77
2022/02/22 08:31:36;;;;;;;1.70;0.20;;;23.50;99.90;;;;;;5025008;28;20037;-77
2022/02/22 08:34:03;;;;;;;7.22;0.30;;;23.40;99.90;;;;;;5021878;28;20455;-76
2022/02/22 08:36:31;;;;;;;0.50;0.40;;;23.40;99.90;;;;;;5019615;28;20031;-78
2022/02/22 08:39:01;;;;;;;0.85;0.30;;;23.30;99.90;;;;;;5018228;28;20026;-78
2022/02/22 08:41:29;;;;;;;4.15;0.52;;;23.40;99.90;;;;;;5021250;28;20041;-77
2022/02/22 08:43:57;;;;;;;2.65;0.40;;;23.40;99.90;;;;;;5026684;28;20121;-77
2022/02/22 08:47:19;;;;;;;1.17;0.30;;;23.40;99.90;;;;;;5015940;28;20090;-76
2022/02/22 08:49:49;;;;;;;0.55;0.22;;;23.30;99.90;;;;;;5014318;28;20045;-76
2022/02/22 08:52:19;;;;;;;1.00;0.32;;;23.20;99.90;;;;;;5021850;28;20048;-76
2022/02/22 08:55:04;;;;;;;1.42;0.35;;;23.20;99.90;;;;;;5025933;28;20037;-76
2022/02/22 08:57:31;;;;;;;1.27;0.55;;;23.10;99.90;;;;;;5027218;28;20112;-75
2022/02/22 09:00:00;;;;;;;0.50;0.20;;;23.20;99.90;;;;;;5024854;28;20037;-77
2022/02/22 09:02:28;;;;;;;0.40;0.20;;;23.20;99.90;;;;;;5021791;28;20037;-77
2022/02/22 09:04:55;;;;;;;0.40;0.20;;;23.10;99.90;;;;;;5023296;28;20116;-77
2022/02/22 09:07:22;;;;;;;0.77;0.63;;;23.10;99.90;;;;;;5025118;28;20039;-77
2022/02/22 09:09:49;;;;;;;0.30;0.10;;;23.00;99.90;;;;;;5022206;28;20060;-76
2022/02/22 09:12:17;;;;;;;0.35;0.10;;;22.90;99.90;;;;;;5022435;28;20034;-74
2022/02/22 09:14:44;;;;;;;1.10;0.10;;;22.80;99.90;;;;;;5018954;28;20124;-74
2022/02/22 09:17:11;;;;;;;0.32;0.17;;;22.80;99.90;;;;;;5019939;28;20116;-75
2022/02/22 09:19:39;;;;;;;0.57;0.28;;;22.80;99.90;;;;;;5023444;28;20064;-75
2022/02/22 09:22:08;;;;;;;1.55;0.20;;;22.80;99.90;;;;;;5021358;28;20106;-76
2022/02/22 09:24:35;;;;;;;0.73;0.10;;;22.80;99.90;;;;;;5023125;28;20514;-76
2022/02/22 09:27:02;;;;;;;0.30;0.20;;;22.90;99.90;;;;;;5023447;28;20390;-75
2022/02/22 09:29:30;;;;;;;1.52;0.30;;;22.80;99.90;;;;;;5028799;28;20045;-75
2022/02/22 09:31:57;;;;;;;1.77;0.28;;;22.80;99.90;;;;;;5021530;28;20040;-77
2022/02/22 09:34:25;;;;;;;2.55;0.20;;;22.70;99.90;;;;;;5021853;28;20440;-77
2022/02/22 09:36:52;;;;;;;1.55;0.10;;;22.70;99.90;;;;;;5020406;28;20034;-77
2022/02/22 09:39:19;;;;;;;1.65;0.35;;;22.70;99.90;;;;;;5023176;28;20022;-77
2022/02/22 09:41:47;;;;;;;0.57;0.25;;;22.70;99.90;;;;;;5027762;28;20480;-75
2022/02/22 09:44:15;;;;;;;0.75;0.20;;;22.70;99.90;;;;;;5021542;28;20067;-78
2022/02/22 09:46:43;;;;;;;1.25;0.35;;;22.70;99.90;;;;;;5020983;28;20402;-78
2022/02/22 09:49:12;;;;;;;0.55;0.25;;;22.80;99.90;;;;;;5023071;28;20030;-78
2022/02/22 09:51:39;;;;;;;2.33;0.30;;;22.90;99.90;;;;;;5027165;28;20029;-77
2022/02/22 09:54:06;;;;;;;0.57;0.20;;;23.00;99.90;;;;;;5018509;28;20038;-78
2022/02/22 09:56:42;;;;;;;2.70;0.25;;;23.10;99.90;;;;;;5016005;28;20033;-77
2022/02/22 09:59:10;;;;;;;1.02;0.45;;;23.20;99.90;;;;;;5026337;28;20056;-78
2022/02/22 10:01:42;;;;;;;3.00;0.32;;;23.20;99.90;;;;;;5022051;28;20110;-82
2022/02/22 10:04:09;;;;;;;4.00;0.57;;;23.30;99.90;;;;;;5023062;28;20026;-78
2022/02/22 10:06:38;;;;;;;2.13;1.05;;;23.20;99.90;;;;;;5017692;28;20042;-75
2022/02/22 10:09:07;;;;;;;2.78;0.50;;;22.90;99.90;;;;;;5020111;28;20034;-74
2022/02/22 10:11:54;;;;;;;2.67;0.60;;;22.90;99.90;;;;;;5054687;28;20434;-75
2022/02/22 10:14:32;;;;;;;1.98;0.80;;;22.60;99.90;;;;;;5021942;28;20060;-76
2022/02/22 10:17:00;;;;;;;4.63;0.68;;;22.40;99.90;;;;;;5023522;28;20040;-75
2022/02/22 10:19:30;;;;;;;3.38;0.70;;;22.30;99.90;;;;;;5025225;28;20072;-75
2022/02/22 10:21:58;;;;;;;1.80;0.50;;;22.20;99.90;;;;;;5022902;28;20029;-78
2022/02/22 10:24:29;;;;;;;5.20;1.08;;;22.20;99.90;;;;;;5018855;28;20053;-74
2022/02/22 10:27:01;;;;;;;1.52;0.68;;;22.30;99.90;;;;;;5021771;28;20144;-77
2022/02/22 10:29:31;;;;;;;1.88;0.65;;;22.20;99.90;;;;;;5024539;28;20029;-75
2022/02/22 10:32:09;;;;;;;3.70;0.50;;;22.10;99.90;;;;;;5031880;28;20036;-76
2022/02/22 10:34:36;;;;;;;1.02;0.30;;;22.00;99.90;;;;;;5026935;28;20026;-77
2022/02/22 10:37:03;;;;;;;1.63;0.95;;;21.90;99.90;;;;;;5024326;28;20067;-75
2022/02/22 10:39:31;;;;;;;3.08;0.40;;;21.90;99.90;;;;;;5022782;28;20025;-76
2022/02/22 10:41:58;;;;;;;2.60;0.80;;;21.80;99.90;;;;;;5033357;28;20029;-73
2022/02/22 10:44:35;;;;;;;1.80;0.40;;;21.80;99.90;;;;;;5031133;28;20057;-73
2022/02/22 10:47:08;;;;;;;5.03;0.90;;;21.70;99.90;;;;;;5030305;28;20034;-77
2022/02/22 10:49:37;;;;;;;4.75;0.80;;;21.70;99.90;;;;;;5041623;28;20129;-74
2022/02/22 10:52:07;;;;;;;1.50;0.50;;;21.70;99.90;;;;;;5029606;28;20513;-75
2022/02/22 10:54:35;;;;;;;4.25;0.75;;;21.60;99.90;;;;;;5029332;28;20071;-74
2022/02/22 10:57:04;;;;;;;4.82;0.95;;;21.60;99.90;;;;;;5031255;28;20033;-73
2022/02/22 10:59:31;;;;;;;1.15;0.68;;;21.60;99.90;;;;;;5031664;28;20036;-75
2022/02/22 11:01:59;;;;;;;2.38;0.80;;;21.50;99.90;;;;;;5032784;28;20036;-73
2022/02/22 11:04:27;;;;;;;2.03;0.90;;;21.50;99.90;;;;;;5027704;28;20033;-75
2022/02/22 11:06:54;;;;;;;2.80;1.25;;;21.50;99.90;;;;;;5027004;28;20132;-74
2022/02/22 11:09:24;;;;;;;3.17;0.68;;;21.50;99.90;;;;;;5033748;28;20481;-75
2022/02/22 11:11:58;;;;;;;3.58;0.80;;;21.40;99.90;;;;;;5032009;28;20032;-76
2022/02/22 11:14:31;;;;;;;1.02;0.68;;;21.40;99.90;;;;;;5021723;28;20099;-76
2022/02/22 11:17:02;;;;;;;2.15;0.68;;;21.40;99.90;;;;;;5020893;28;20021;-74
2022/02/22 11:19:39;;;;;;;1.45;0.80;;;21.40;99.90;;;;;;5032199;28;20048;-75
2022/02/22 11:22:26;;;;;;;2.30;0.60;;;21.40;99.90;;;;;;5031618;28;20156;-76
2022/02/22 11:24:59;;;;;;;3.63;0.88;;;21.40;99.90;;;;;;5027017;28;20031;-77
2022/02/22 11:27:35;;;;;;;1.05;0.70;;;21.40;99.90;;;;;;5028204;28;20079;-77
2022/02/22 11:30:07;;;;;;;1.42;0.60;;;21.40;99.90;;;;;;5032972;28;20484;-78
2022/02/22 11:32:35;;;;;;;2.85;0.73;;;21.30;99.90;;;;;;5030886;28;20033;-75
2022/02/22 11:35:17;;;;;;;2.88;1.05;;;21.40;99.90;;;;;;5021965;28;20029;-77
2022/02/22 11:37:48;;;;;;;3.15;0.90;;;21.40;99.90;;;;;;5030647;28;20120;-74
2022/02/22 11:40:31;;;;;;;2.20;0.68;;;21.30;99.90;;;;;;5032121;28;20025;-74
2022/02/22 11:43:13;;;;;;;1.60;0.65;;;21.30;99.90;;;;;;5020244;28;20041;-74
2022/02/22 11:45:45;;;;;;;5.53;1.48;;;21.30;99.90;;;;;;5028271;28;20033;-74
2022/02/22 11:48:23;;;;;;;2.13;1.00;;;21.40;99.90;;;;;;5031048;28;20761;-75
2022/02/22 11:50:59;;;;;;;3.55;1.65;;;21.40;99.90;;;;;;5029545;28;20052;-74
2022/02/22 11:53:27;;;;;;;;;;;21.40;99.90;;;;;;5022432;28;20053;-74
2022/02/22 11:55:57;;;;;;;2.20;1.42;;;21.30;99.90;;;;;;5031820;28;19909;-74
2022/02/22 11:58:30;;;;;;;3.58;1.50;;;21.40;99.90;;;;;;5027236;28;20025;-73
2022/02/22 12:01:04;;;;;;;2.80;1.30;;;21.40;99.90;;;;;;5029747;28;20021;-74
2022/02/22 12:03:52;;;;;;;2.20;1.40;;;21.30;99.90;;;;;;5031076;28;20095;-75
2022/02/22 12:06:22;;;;;;;2.63;1.40;;;21.40;99.90;;;;;;5030188;28;20030;-74
2022/02/22 12:08:53;;;;;;;1.17;0.90;;;21.40;99.90;;;;;;5030620;28;20038;-75
2022/02/22 12:11:22;;;;;;;8.90;3.10;;;21.30;99.90;;;;;;5030402;28;20084;-75
2022/02/22 12:13:58;;;;;;;9.38;2.65;;;21.30;99.90;;;;;;5030774;28;20085;-77
2022/02/22 12:16:30;;;;;;;2.15;1.42;;;21.30;99.90;;;;;;5021801;28;20088;-74
2022/02/22 12:19:03;;;;;;;3.35;1.40;;;21.20;99.90;;;;;;5030585;28;20083;-76
2022/02/22 12:21:31;;;;;;;5.22;1.85;;;21.20;99.90;;;;;;5027270;28;20034;-76
2022/02/22 12:24:01;;;;;;;2.30;1.20;;;21.30;99.90;;;;;;5028636;28;20021;-75
2022/02/22 12:26:28;;;;;;;1.80;1.38;;;21.20;99.90;;;;;;5030649;28;20088;-75
2022/02/22 12:28:58;;;;;;;1.83;1.65;;;21.30;99.90;;;;;;5030269;28;20026;-74
2022/02/22 12:31:34;;;;;;;3.72;2.08;;;21.30;99.90;;;;;;5028164;28;20033;-75
2022/02/22 12:34:09;;;;;;;1.60;1.30;;;21.30;99.90;;;;;;5017102;28;20030;-74
2022/02/22 12:36:41;;;;;;;3.67;1.77;;;21.30;99.90;;;;;;5022942;28;20037;-76
2022/02/22 12:39:14;;;;;;;3.85;1.42;;;21.30;99.90;;;;;;5030007;28;20163;-75
2022/02/22 12:41:44;;;;;;;2.15;1.30;;;21.30;99.90;;;;;;5026912;28;20030;-75
2022/02/22 12:44:16;;;;;;;1.75;1.15;;;21.30;99.90;;;;;;5030380;28;20436;-76
2022/02/22 12:46:47;;;;;;;2.25;1.15;;;21.40;99.90;;;;;;5030228;28;20285;-74
2022/02/22 12:49:17;;;;;;;1.40;1.20;;;21.40;99.90;;;;;;5029670;28;20029;-76
2022/02/22 12:51:46;;;;;;;2.88;1.13;;;21.40;99.90;;;;;;5032275;28;20033;-78
2022/02/22 12:54:19;;;;;;;2.50;1.70;;;21.40;99.90;;;;;;5031164;28;20029;-78
2022/02/22 12:56:52;;;;;;;4.22;1.52;;;21.40;99.90;;;;;;5027728;28;20021;-74
2022/02/22 12:59:28;;;;;;;5.75;2.13;;;21.40;99.90;;;;;;5029861;28;20404;-75
2022/02/22 13:02:02;;;;;;;3.38;1.65;;;21.40;99.90;;;;;;5028616;28;20036;-74
2022/02/22 13:04:36;;;;;;;5.35;3.05;;;21.40;99.90;;;;;;5031101;28;20445;-75
2022/02/22 13:07:23;;;;;;;6.00;2.17;;;21.40;99.90;;;;;;5029421;28;20083;-74